sensor_id;sensor_type;location;lat;lon;timestamp;pressure;altitude;pressure_sealevel;temperature
18713;BMP280;9485;49.386;8.674;2023-08-06T00:02:35;99580.09;;;18.74
18713;BMP280;9485;49.386;8.674;2023-08-06T00:07:56;99583.91;;;18.77
18713;BMP280;9485;49.386;8.674;2023-08-06T00:13:18;99568.28;;;18.70
18713;BMP280;9485;49.386;8.674;2023-08-06T00:18:39;99557.41;;;18.69
18713;BMP280;9485;49.386;8.674;2023-08-06T00:24:00;99558.16;;;18.77
18713;BMP280;9485;49.386;8.674;2023-08-06T00:29:22;99551.69;;;18.83
18713;BMP280;9485;49.386;8.674;2023-08-06T00:34:43;99550.16;;;18.90
18713;BMP280;9485;49.386;8.674;2023-08-06T00:40:05;99534.28;;;18.96
18713;BMP280;9485;49.386;8.674;2023-08-06T00:45:28;99521.72;;;18.99
18713;BMP280;9485;49.386;8.674;2023-08-06T00:50:50;99523.63;;;18.97
18713;BMP280;9485;49.386;8.674;2023-08-06T00:56:12;99516.00;;;18.99
18713;BMP280;9485;49.386;8.674;2023-08-06T01:01:35;99518.84;;;18.99
18713;BMP280;9485;49.386;8.674;2023-08-06T01:07:05;99512.94;;;19.05
18713;BMP280;9485;49.386;8.674;2023-08-06T01:12:34;99510.47;;;19.09
18713;BMP280;9485;49.386;8.674;2023-08-06T01:18:01;99498.03;;;19.14
18713;BMP280;9485;49.386;8.674;2023-08-06T01:23:25;99494.03;;;19.17
18713;BMP280;9485;49.386;8.674;2023-08-06T01:28:57;99485.25;;;19.15
18713;BMP280;9485;49.386;8.674;2023-08-06T01:34:24;99488.13;;;19.15
18713;BMP280;9485;49.386;8.674;2023-08-06T01:39:46;99477.63;;;19.17
18713;BMP280;9485;49.386;8.674;2023-08-06T01:45:08;99458.53;;;19.20
18713;BMP280;9485;49.386;8.674;2023-08-06T01:50:32;99462.78;;;19.11
18713;BMP280;9485;49.386;8.674;2023-08-06T01:55:54;99458.78;;;18.99
18713;BMP280;9485;49.386;8.674;2023-08-06T02:01:14;99458.59;;;18.97
18713;BMP280;9485;49.386;8.674;2023-08-06T02:06:35;99464.50;;;18.99
18713;BMP280;9485;49.386;8.674;2023-08-06T02:11:57;99463.91;;;19.01
18713;BMP280;9485;49.386;8.674;2023-08-06T02:17:17;99453.06;;;18.99
18713;BMP280;9485;49.386;8.674;2023-08-06T02:22:38;99447.53;;;19.01
18713;BMP280;9485;49.386;8.674;2023-08-06T02:28:00;99458.97;;;19.01
18713;BMP280;9485;49.386;8.674;2023-08-06T02:33:21;99457.03;;;19.11
18713;BMP280;9485;49.386;8.674;2023-08-06T02:38:41;99453.03;;;19.14
18713;BMP280;9485;49.386;8.674;2023-08-06T02:44:03;99448.06;;;19.15
18713;BMP280;9485;49.386;8.674;2023-08-06T02:49:24;99437.78;;;19.12
18713;BMP280;9485;49.386;8.674;2023-08-06T02:54:45;99440.25;;;19.08
18713;BMP280;9485;49.386;8.674;2023-08-06T03:00:10;99445.59;;;19.11
18713;BMP280;9485;49.386;8.674;2023-08-06T03:05:31;99439.88;;;19.11
18713;BMP280;9485;49.386;8.674;2023-08-06T03:10:52;99448.63;;;19.06
18713;BMP280;9485;49.386;8.674;2023-08-06T03:16:15;99439.69;;;19.02
18713;BMP280;9485;49.386;8.674;2023-08-06T03:21:36;99430.94;;;19.00
18713;BMP280;9485;49.386;8.674;2023-08-06T03:26:58;99429.78;;;19.03
18713;BMP280;9485;49.386;8.674;2023-08-06T03:32:20;99431.31;;;19.04
18713;BMP280;9485;49.386;8.674;2023-08-06T03:37:41;99422.19;;;18.98
18713;BMP280;9485;49.386;8.674;2023-08-06T03:43:02;99422.34;;;19.00
18713;BMP280;9485;49.386;8.674;2023-08-06T03:48:24;99419.31;;;18.98
18713;BMP280;9485;49.386;8.674;2023-08-06T03:53:44;99418.59;;;18.90
18713;BMP280;9485;49.386;8.674;2023-08-06T03:59:05;99429.63;;;18.86
18713;BMP280;9485;49.386;8.674;2023-08-06T04:04:27;99424.16;;;18.73
18713;BMP280;9485;49.386;8.674;2023-08-06T04:09:56;99424.94;;;18.74
18713;BMP280;9485;49.386;8.674;2023-08-06T04:15:18;99418.06;;;18.62
18713;BMP280;9485;49.386;8.674;2023-08-06T04:20:44;99422.66;;;18.57
18713;BMP280;9485;49.386;8.674;2023-08-06T04:26:05;99423.25;;;18.48
18713;BMP280;9485;49.386;8.674;2023-08-06T04:31:29;99426.91;;;18.41
18713;BMP280;9485;49.386;8.674;2023-08-06T04:36:51;99429.75;;;18.41
18713;BMP280;9485;49.386;8.674;2023-08-06T04:42:12;99427.84;;;18.36
18713;BMP280;9485;49.386;8.674;2023-08-06T04:47:33;99426.88;;;18.34
18713;BMP280;9485;49.386;8.674;2023-08-06T04:52:55;99431.28;;;18.27
18713;BMP280;9485;49.386;8.674;2023-08-06T04:58:15;99425.75;;;18.29
18713;BMP280;9485;49.386;8.674;2023-08-06T05:03:36;99428.44;;;18.27
18713;BMP280;9485;49.386;8.674;2023-08-06T05:08:58;99435.69;;;18.28
18713;BMP280;9485;49.386;8.674;2023-08-06T05:14:18;99444.41;;;18.08
18713;BMP280;9485;49.386;8.674;2023-08-06T05:19:39;99440.22;;;17.94
18713;BMP280;9485;49.386;8.674;2023-08-06T05:25:01;99435.34;;;17.37
18713;BMP280;9485;49.386;8.674;2023-08-06T05:30:21;99440.47;;;16.96
18713;BMP280;9485;49.386;8.674;2023-08-06T05:35:42;99439.22;;;16.76
18713;BMP280;9485;49.386;8.674;2023-08-06T05:41:04;99446.53;;;16.57
18713;BMP280;9485;49.386;8.674;2023-08-06T05:46:25;99445.47;;;16.40
18713;BMP280;9485;49.386;8.674;2023-08-06T05:51:45;99452.50;;;16.39
18713;BMP280;9485;49.386;8.674;2023-08-06T05:57:07;99457.78;;;16.35
18713;BMP280;9485;49.386;8.674;2023-08-06T06:02:28;99453.59;;;16.36
18713;BMP280;9485;49.386;8.674;2023-08-06T06:07:48;99463.47;;;16.35
18713;BMP280;9485;49.386;8.674;2023-08-06T06:13:11;99455.34;;;16.39
18713;BMP280;9485;49.386;8.674;2023-08-06T06:18:32;99463.53;;;16.42
18713;BMP280;9485;49.386;8.674;2023-08-06T06:23:52;99463.03;;;16.51
18713;BMP280;9485;49.386;8.674;2023-08-06T06:29:14;99476.16;;;16.54
18713;BMP280;9485;49.386;8.674;2023-08-06T06:34:35;99471.59;;;16.51
18713;BMP280;9485;49.386;8.674;2023-08-06T06:39:55;99475.59;;;16.55
18713;BMP280;9485;49.386;8.674;2023-08-06T06:45:17;99480.56;;;16.62
18713;BMP280;9485;49.386;8.674;2023-08-06T06:50:38;99478.19;;;16.74
18713;BMP280;9485;49.386;8.674;2023-08-06T06:56:03;99481.63;;;16.80
18713;BMP280;9485;49.386;8.674;2023-08-06T07:01:25;99477.09;;;16.84
18713;BMP280;9485;49.386;8.674;2023-08-06T07:06:47;99465.94;;;16.94
18713;BMP280;9485;49.386;8.674;2023-08-06T07:12:08;99460.66;;;17.05
18713;BMP280;9485;49.386;8.674;2023-08-06T07:17:30;99471.53;;;17.07
18713;BMP280;9485;49.386;8.674;2023-08-06T07:22:51;99456.34;;;17.19
18713;BMP280;9485;49.386;8.674;2023-08-06T07:28:11;99470.47;;;17.25
18713;BMP280;9485;49.386;8.674;2023-08-06T07:33:33;99464.84;;;17.47
18713;BMP280;9485;49.386;8.674;2023-08-06T07:38:53;99463.19;;;17.59
18713;BMP280;9485;49.386;8.674;2023-08-06T07:44:16;99469.91;;;17.76
18713;BMP280;9485;49.386;8.674;2023-08-06T07:49:38;99461.88;;;17.75
18713;BMP280;9485;49.386;8.674;2023-08-06T07:54:58;99463.03;;;17.72
18713;BMP280;9485;49.386;8.674;2023-08-06T08:00:21;99463.56;;;17.70
18713;BMP280;9485;49.386;8.674;2023-08-06T08:05:43;99475.56;;;17.69
18713;BMP280;9485;49.386;8.674;2023-08-06T08:11:05;99448.56;;;17.70
18713;BMP280;9485;49.386;8.674;2023-08-06T08:16:25;99465.16;;;18.08
18713;BMP280;9485;49.386;8.674;2023-08-06T08:21:47;99465.03;;;18.21
18713;BMP280;9485;49.386;8.674;2023-08-06T08:27:08;99460.78;;;18.37
18713;BMP280;9485;49.386;8.674;2023-08-06T08:32:28;99452.78;;;18.51
18713;BMP280;9485;49.386;8.674;2023-08-06T08:37:50;99460.00;;;18.59
18713;BMP280;9485;49.386;8.674;2023-08-06T08:43:21;99448.97;;;18.41
18713;BMP280;9485;49.386;8.674;2023-08-06T08:48:42;99439.09;;;18.34
18713;BMP280;9485;49.386;8.674;2023-08-06T08:54:04;99442.13;;;18.44
18713;BMP280;9485;49.386;8.674;2023-08-06T08:59:29;99449.34;;;18.60
18713;BMP280;9485;49.386;8.674;2023-08-06T09:04:50;99442.09;;;18.74
18713;BMP280;9485;49.386;8.674;2023-08-06T09:10:13;99433.22;;;19.09
18713;BMP280;9485;49.386;8.674;2023-08-06T09:15:36;99432.63;;;19.18
18713;BMP280;9485;49.386;8.674;2023-08-06T09:20:58;99450.41;;;18.94
18713;BMP280;9485;49.386;8.674;2023-08-06T09:26:19;99448.31;;;18.87
18713;BMP280;9485;49.386;8.674;2023-08-06T09:31:43;99440.03;;;19.21
18713;BMP280;9485;49.386;8.674;2023-08-06T09:37:04;99446.84;;;19.96
18713;BMP280;9485;49.386;8.674;2023-08-06T09:42:25;99436.66;;;19.78
18713;BMP280;9485;49.386;8.674;2023-08-06T09:47:48;99432.84;;;19.76
18713;BMP280;9485;49.386;8.674;2023-08-06T09:53:09;99423.50;;;19.75
18713;BMP280;9485;49.386;8.674;2023-08-06T09:58:31;99442.72;;;19.19
18713;BMP280;9485;49.386;8.674;2023-08-06T10:03:55;99445.13;;;18.68
18713;BMP280;9485;49.386;8.674;2023-08-06T10:09:18;99457.94;;;18.37
18713;BMP280;9485;49.386;8.674;2023-08-06T10:14:40;99457.94;;;18.22
18713;BMP280;9485;49.386;8.674;2023-08-06T10:20:07;99456.78;;;18.10
18713;BMP280;9485;49.386;8.674;2023-08-06T10:25:31;99454.13;;;18.12
18713;BMP280;9485;49.386;8.674;2023-08-06T10:30:53;99464.22;;;18.13
18713;BMP280;9485;49.386;8.674;2023-08-06T10:36:15;99481.34;;;18.06
18713;BMP280;9485;49.386;8.674;2023-08-06T10:41:36;99487.97;;;17.86
18713;BMP280;9485;49.386;8.674;2023-08-06T10:47:26;99499.94;;;17.62
18713;BMP280;9485;49.386;8.674;2023-08-06T10:52:48;99503.53;;;17.55
18713;BMP280;9485;49.386;8.674;2023-08-06T10:58:15;99515.69;;;17.48
18713;BMP280;9485;49.386;8.674;2023-08-06T11:03:36;99508.97;;;17.38
18713;BMP280;9485;49.386;8.674;2023-08-06T11:08:59;99515.78;;;17.28
18713;BMP280;9485;49.386;8.674;2023-08-06T11:14:19;99523.91;;;17.24
18713;BMP280;9485;49.386;8.674;2023-08-06T11:19:41;99526.91;;;17.19
18713;BMP280;9485;49.386;8.674;2023-08-06T11:25:05;99530.16;;;17.23
18713;BMP280;9485;49.386;8.674;2023-08-06T11:30:27;99539.09;;;17.19
18713;BMP280;9485;49.386;8.674;2023-08-06T11:35:48;99538.94;;;17.25
18713;BMP280;9485;49.386;8.674;2023-08-06T11:41:12;99548.16;;;17.38
18713;BMP280;9485;49.386;8.674;2023-08-06T11:46:51;99555.06;;;17.50
18713;BMP280;9485;49.386;8.674;2023-08-06T11:52:18;99569.31;;;17.50
18713;BMP280;9485;49.386;8.674;2023-08-06T11:57:44;99575.63;;;17.56
18713;BMP280;9485;49.386;8.674;2023-08-06T12:03:06;99563.47;;;17.55
18713;BMP280;9485;49.386;8.674;2023-08-06T12:08:27;99591.09;;;17.68
18713;BMP280;9485;49.386;8.674;2023-08-06T12:13:52;99594.31;;;17.64
18713;BMP280;9485;49.386;8.674;2023-08-06T12:19:13;99622.31;;;17.66
18713;BMP280;9485;49.386;8.674;2023-08-06T12:24:33;99619.13;;;17.77
18713;BMP280;9485;49.386;8.674;2023-08-06T12:29:56;99630.75;;;17.79
18713;BMP280;9485;49.386;8.674;2023-08-06T12:35:16;99646.41;;;17.93
18713;BMP280;9485;49.386;8.674;2023-08-06T12:40:37;99637.28;;;18.02
18713;BMP280;9485;49.386;8.674;2023-08-06T12:45:59;99648.75;;;18.09
18713;BMP280;9485;49.386;8.674;2023-08-06T12:51:19;99658.13;;;18.17
18713;BMP280;9485;49.386;8.674;2023-08-06T12:56:40;99668.06;;;18.23
18713;BMP280;9485;49.386;8.674;2023-08-06T13:02:03;99668.09;;;18.38
18713;BMP280;9485;49.386;8.674;2023-08-06T13:07:24;99684.91;;;18.49
18713;BMP280;9485;49.386;8.674;2023-08-06T13:12:44;99695.41;;;18.54
18713;BMP280;9485;49.386;8.674;2023-08-06T13:18:06;99704.34;;;18.58
18713;BMP280;9485;49.386;8.674;2023-08-06T13:23:27;99706.47;;;18.65
18713;BMP280;9485;49.386;8.674;2023-08-06T13:28:47;99704.38;;;18.73
18713;BMP280;9485;49.386;8.674;2023-08-06T13:34:10;99720.06;;;18.80
18713;BMP280;9485;49.386;8.674;2023-08-06T13:39:30;99734.53;;;18.74
18713;BMP280;9485;49.386;8.674;2023-08-06T13:44:51;99726.31;;;18.63
18713;BMP280;9485;49.386;8.674;2023-08-06T13:50:14;99739.63;;;18.61
18713;BMP280;9485;49.386;8.674;2023-08-06T13:55:35;99745.88;;;18.44
18713;BMP280;9485;49.386;8.674;2023-08-06T14:00:55;99747.59;;;18.47
18713;BMP280;9485;49.386;8.674;2023-08-06T14:06:18;99752.97;;;18.58
18713;BMP280;9485;49.386;8.674;2023-08-06T14:11:39;99773.78;;;18.66
18713;BMP280;9485;49.386;8.674;2023-08-06T14:17:00;99769.72;;;18.54
18713;BMP280;9485;49.386;8.674;2023-08-06T14:22:26;99780.97;;;18.52
18713;BMP280;9485;49.386;8.674;2023-08-06T14:27:46;99786.69;;;18.52
18713;BMP280;9485;49.386;8.674;2023-08-06T14:33:07;99792.75;;;18.49
18713;BMP280;9485;49.386;8.674;2023-08-06T14:38:29;99794.06;;;18.40
18713;BMP280;9485;49.386;8.674;2023-08-06T14:43:50;99798.97;;;18.25
18713;BMP280;9485;49.386;8.674;2023-08-06T14:49:11;99812.47;;;18.24
18713;BMP280;9485;49.386;8.674;2023-08-06T14:54:33;99824.91;;;18.07
18713;BMP280;9485;49.386;8.674;2023-08-06T14:59:54;99815.09;;;17.95
18713;BMP280;9485;49.386;8.674;2023-08-06T15:05:15;99819.59;;;17.83
18713;BMP280;9485;49.386;8.674;2023-08-06T15:10:37;99816.00;;;17.82
18713;BMP280;9485;49.386;8.674;2023-08-06T15:15:58;99821.13;;;17.84
18713;BMP280;9485;49.386;8.674;2023-08-06T15:21:18;99839.06;;;17.64
18713;BMP280;9485;49.386;8.674;2023-08-06T15:26:40;99854.19;;;17.31
18713;BMP280;9485;49.386;8.674;2023-08-06T15:32:02;99860.91;;;17.21
18713;BMP280;9485;49.386;8.674;2023-08-06T15:37:23;99856.50;;;17.33
18713;BMP280;9485;49.386;8.674;2023-08-06T15:42:45;99862.06;;;17.38
18713;BMP280;9485;49.386;8.674;2023-08-06T15:48:06;99865.06;;;17.33
18713;BMP280;9485;49.386;8.674;2023-08-06T15:53:28;99870.75;;;17.33
18713;BMP280;9485;49.386;8.674;2023-08-06T15:58:52;99877.56;;;17.30
18713;BMP280;9485;49.386;8.674;2023-08-06T16:04:13;99881.41;;;17.19
18713;BMP280;9485;49.386;8.674;2023-08-06T16:09:34;99881.41;;;17.19
18713;BMP280;9485;49.386;8.674;2023-08-06T16:14:56;99889.53;;;17.28
18713;BMP280;9485;49.386;8.674;2023-08-06T16:20:17;99891.28;;;17.31
18713;BMP280;9485;49.386;8.674;2023-08-06T16:25:38;99901.34;;;17.32
18713;BMP280;9485;49.386;8.674;2023-08-06T16:31:05;99915.22;;;17.28
18713;BMP280;9485;49.386;8.674;2023-08-06T16:36:28;99922.69;;;17.31
18713;BMP280;9485;49.386;8.674;2023-08-06T16:41:49;99921.69;;;17.29
18713;BMP280;9485;49.386;8.674;2023-08-06T16:47:11;99914.47;;;17.28
18713;BMP280;9485;49.386;8.674;2023-08-06T16:52:32;99926.28;;;17.32
18713;BMP280;9485;49.386;8.674;2023-08-06T16:57:53;99934.63;;;17.30
18713;BMP280;9485;49.386;8.674;2023-08-06T17:03:16;99927.50;;;17.23
18713;BMP280;9485;49.386;8.674;2023-08-06T17:08:37;99946.81;;;17.30
18713;BMP280;9485;49.386;8.674;2023-08-06T17:13:58;99942.84;;;17.33
18713;BMP280;9485;49.386;8.674;2023-08-06T17:19:21;99948.31;;;17.44
18713;BMP280;9485;49.386;8.674;2023-08-06T17:24:41;99951.00;;;17.49
18713;BMP280;9485;49.386;8.674;2023-08-06T17:30:03;99955.63;;;17.52
18713;BMP280;9485;49.386;8.674;2023-08-06T17:35:25;99957.28;;;17.48
18713;BMP280;9485;49.386;8.674;2023-08-06T17:40:53;99964.03;;;17.37
18713;BMP280;9485;49.386;8.674;2023-08-06T17:46:14;99961.28;;;17.32
18713;BMP280;9485;49.386;8.674;2023-08-06T17:51:36;99969.19;;;17.26
18713;BMP280;9485;49.386;8.674;2023-08-06T17:56:57;99970.31;;;17.23
18713;BMP280;9485;49.386;8.674;2023-08-06T18:02:18;99972.72;;;17.19
18713;BMP280;9485;49.386;8.674;2023-08-06T18:07:41;99974.47;;;17.22
18713;BMP280;9485;49.386;8.674;2023-08-06T18:13:02;99980.84;;;17.28
18713;BMP280;9485;49.386;8.674;2023-08-06T18:18:23;99984.69;;;17.31
18713;BMP280;9485;49.386;8.674;2023-08-06T18:23:46;99988.84;;;17.30
18713;BMP280;9485;49.386;8.674;2023-08-06T18:29:06;99990.63;;;17.20
18713;BMP280;9485;49.386;8.674;2023-08-06T18:34:27;99997.63;;;17.19
18713;BMP280;9485;49.386;8.674;2023-08-06T18:39:49;99993.16;;;17.10
18713;BMP280;9485;49.386;8.674;2023-08-06T18:45:10;100001.38;;;17.14
18713;BMP280;9485;49.386;8.674;2023-08-06T18:50:31;100010.81;;;17.09
18713;BMP280;9485;49.386;8.674;2023-08-06T18:55:56;100019.84;;;17.00
18713;BMP280;9485;49.386;8.674;2023-08-06T19:01:17;100015.97;;;16.97
18713;BMP280;9485;49.386;8.674;2023-08-06T19:06:37;100012.38;;;16.97
18713;BMP280;9485;49.386;8.674;2023-08-06T19:11:59;100029.59;;;16.91
18713;BMP280;9485;49.386;8.674;2023-08-06T19:17:22;100024.22;;;16.88
18713;BMP280;9485;49.386;8.674;2023-08-06T19:22:42;100035.53;;;16.80
18713;BMP280;9485;49.386;8.674;2023-08-06T19:28:04;100035.28;;;16.78
18713;BMP280;9485;49.386;8.674;2023-08-06T19:33:30;100041.56;;;16.77
18713;BMP280;9485;49.386;8.674;2023-08-06T19:38:51;100036.81;;;16.79
18713;BMP280;9485;49.386;8.674;2023-08-06T19:44:14;100039.44;;;16.77
18713;BMP280;9485;49.386;8.674;2023-08-06T19:49:35;100046.47;;;16.76
18713;BMP280;9485;49.386;8.674;2023-08-06T19:54:56;100029.16;;;16.74
18713;BMP280;9485;49.386;8.674;2023-08-06T20:00:18;100036.72;;;16.72
18713;BMP280;9485;49.386;8.674;2023-08-06T20:05:38;100047.34;;;16.71
18713;BMP280;9485;49.386;8.674;2023-08-06T20:10:59;100052.63;;;16.67
18713;BMP280;9485;49.386;8.674;2023-08-06T20:16:21;100053.59;;;16.70
18713;BMP280;9485;49.386;8.674;2023-08-06T20:21:41;100062.91;;;16.70
18713;BMP280;9485;49.386;8.674;2023-08-06T20:27:04;100071.03;;;16.66
18713;BMP280;9485;49.386;8.674;2023-08-06T20:32:26;100057.53;;;16.54
18713;BMP280;9485;49.386;8.674;2023-08-06T20:37:47;100080.53;;;16.43
18713;BMP280;9485;49.386;8.674;2023-08-06T20:43:08;100076.41;;;16.26
18713;BMP280;9485;49.386;8.674;2023-08-06T20:48:30;100079.66;;;16.17
18713;BMP280;9485;49.386;8.674;2023-08-06T20:53:51;100083.06;;;16.15
18713;BMP280;9485;49.386;8.674;2023-08-06T20:59:12;100088.59;;;16.08
18713;BMP280;9485;49.386;8.674;2023-08-06T21:04:34;100096.47;;;16.02
18713;BMP280;9485;49.386;8.674;2023-08-06T21:09:55;100108.97;;;15.99
18713;BMP280;9485;49.386;8.674;2023-08-06T21:15:16;100097.78;;;16.01
18713;BMP280;9485;49.386;8.674;2023-08-06T21:20:39;100107.50;;;15.92
18713;BMP280;9485;49.386;8.674;2023-08-06T21:26:01;100114.50;;;15.91
18713;BMP280;9485;49.386;8.674;2023-08-06T21:31:22;100119.81;;;15.82
18713;BMP280;9485;49.386;8.674;2023-08-06T21:36:46;100132.69;;;15.70
18713;BMP280;9485;49.386;8.674;2023-08-06T21:42:09;100136.19;;;15.58
18713;BMP280;9485;49.386;8.674;2023-08-06T21:47:30;100143.25;;;15.51
18713;BMP280;9485;49.386;8.674;2023-08-06T21:52:52;100143.25;;;15.51
18713;BMP280;9485;49.386;8.674;2023-08-06T21:58:13;100153.63;;;15.49
18713;BMP280;9485;49.386;8.674;2023-08-06T22:03:34;100154.72;;;15.46
18713;BMP280;9485;49.386;8.674;2023-08-06T22:08:56;100156.56;;;15.43
18713;BMP280;9485;49.386;8.674;2023-08-06T22:14:17;100159.88;;;15.47
18713;BMP280;9485;49.386;8.674;2023-08-06T22:19:37;100161.72;;;15.45
18713;BMP280;9485;49.386;8.674;2023-08-06T22:25:00;100161.03;;;15.39
18713;BMP280;9485;49.386;8.674;2023-08-06T22:30:20;100164.16;;;15.35
18713;BMP280;9485;49.386;8.674;2023-08-06T22:35:41;100166.53;;;15.31
18713;BMP280;9485;49.386;8.674;2023-08-06T22:41:03;100172.00;;;15.29
18713;BMP280;9485;49.386;8.674;2023-08-06T22:46:26;100166.81;;;15.28
18713;BMP280;9485;49.386;8.674;2023-08-06T22:51:47;100183.84;;;15.33
18713;BMP280;9485;49.386;8.674;2023-08-06T22:57:09;100198.59;;;15.32
18713;BMP280;9485;49.386;8.674;2023-08-06T23:02:30;100201.44;;;15.32
18713;BMP280;9485;49.386;8.674;2023-08-06T23:07:51;100201.22;;;15.30
18713;BMP280;9485;49.386;8.674;2023-08-06T23:13:13;100202.56;;;15.23
18713;BMP280;9485;49.386;8.674;2023-08-06T23:18:33;100208.50;;;15.25
18713;BMP280;9485;49.386;8.674;2023-08-06T23:23:53;100216.53;;;15.21
18713;BMP280;9485;49.386;8.674;2023-08-06T23:29:15;100212.16;;;15.20
18713;BMP280;9485;49.386;8.674;2023-08-06T23:34:36;100214.50;;;15.16
18713;BMP280;9485;49.386;8.674;2023-08-06T23:39:57;100216.03;;;15.17
18713;BMP280;9485;49.386;8.674;2023-08-06T23:45:19;100222.50;;;15.18
18713;BMP280;9485;49.386;8.674;2023-08-06T23:50:39;100215.56;;;15.13
18713;BMP280;9485;49.386;8.674;2023-08-06T23:56:00;100231.56;;;15.16
